createdAt,value
2022-10-24T00:01:27.824Z,116.90
2022-10-24T00:03:55.447Z,125.25
2022-10-24T00:06:23.106Z,118.30
2022-10-24T00:08:51.235Z,130.00
2022-10-24T00:11:24.516Z,95.85
2022-10-24T00:13:53.550Z,81.78
2022-10-24T00:16:23.171Z,97.82
2022-10-24T00:18:51.184Z,108.38
2022-10-24T00:21:19.095Z,92.28
2022-10-24T00:23:47.071Z,69.53
2022-10-24T00:26:15.955Z,94.38
2022-10-24T00:28:44.121Z,110.15
2022-10-24T00:31:16.532Z,93.50
2022-10-24T00:33:45.339Z,110.93
2022-10-24T00:36:15.069Z,101.47
2022-10-24T00:38:42.865Z,94.18
2022-10-24T00:41:16.241Z,116.75
2022-10-24T00:43:43.874Z,128.95
2022-10-24T00:46:11.554Z,115.38
2022-10-24T00:48:45.299Z,117.40
2022-10-24T00:51:31.907Z,129.35
2022-10-24T00:54:05.565Z,115.50
2022-10-24T00:56:35.903Z,115.93
2022-10-24T00:59:06.292Z,110.70
2022-10-24T01:01:34.483Z,119.25
2022-10-24T01:04:02.344Z,113.10
2022-10-24T01:06:37.262Z,109.20
2022-10-24T01:09:42.610Z,99.78
2022-10-24T01:12:28.743Z,99.43
2022-10-24T01:15:23.177Z,99.28
2022-10-24T01:18:15.005Z,103.22
2022-10-24T01:20:45.658Z,103.60
2022-10-24T01:23:24.246Z,102.72
2022-10-24T01:26:23.704Z,113.43
2022-10-24T01:29:20.733Z,102.07
2022-10-24T01:31:55.001Z,92.78
2022-10-24T01:34:37.100Z,93.47
2022-10-24T01:37:08.663Z,88.97
2022-10-24T01:39:51.589Z,90.93
2022-10-24T01:42:22.626Z,91.55
2022-10-24T01:44:53.638Z,87.57
2022-10-24T01:47:27.918Z,84.20
2022-10-24T01:50:02.520Z,88.18
2022-10-24T01:52:34.085Z,88.88
2022-10-24T01:55:02.193Z,83.55
2022-10-24T01:57:31.959Z,90.22
2022-10-24T01:59:59.489Z,97.15
2022-10-24T02:02:36.399Z,94.18
2022-10-24T02:05:10.241Z,92.88
2022-10-24T02:07:40.665Z,84.53
2022-10-24T02:10:29.253Z,82.20
2022-10-24T02:13:02.923Z,82.25
2022-10-24T02:15:34.269Z,82.85
2022-10-24T02:18:02.066Z,86.40
2022-10-24T02:20:57.576Z,95.80
2022-10-24T02:23:38.564Z,92.90
2022-10-24T02:26:08.926Z,96.20
2022-10-24T02:28:40.868Z,99.43
2022-10-24T02:31:22.669Z,93.93
2022-10-24T02:33:52.165Z,94.97
2022-10-24T02:36:23.250Z,86.40
2022-10-24T02:38:52.539Z,89.57
2022-10-24T02:41:29.469Z,84.35
2022-10-24T02:43:57.938Z,81.03
2022-10-24T02:46:26.426Z,85.68
2022-10-24T02:48:57.609Z,87.88
2022-10-24T02:51:28.767Z,80.47
2022-10-24T02:53:57.808Z,79.00
2022-10-24T02:56:25.271Z,75.45
2022-10-24T02:58:52.913Z,78.07
2022-10-24T03:01:20.310Z,72.97
2022-10-24T03:03:48.155Z,84.85
2022-10-24T03:06:15.812Z,80.70
2022-10-24T03:08:43.252Z,72.97
2022-10-24T03:11:10.833Z,79.47
2022-10-24T03:13:38.443Z,79.32
2022-10-24T03:16:07.911Z,82.78
2022-10-24T03:18:38.234Z,84.00
2022-10-24T03:21:05.725Z,95.18
2022-10-24T03:23:33.469Z,84.38
2022-10-24T03:26:00.909Z,83.45
2022-10-24T03:28:28.624Z,83.78
2022-10-24T03:30:56.478Z,81.63
2022-10-24T03:33:24.149Z,83.88
2022-10-24T03:35:55.082Z,80.95
2022-10-24T03:38:23.445Z,91.38
2022-10-24T03:40:51.406Z,81.47
2022-10-24T03:43:19.382Z,80.97
2022-10-24T03:45:46.980Z,79.40
2022-10-24T03:48:14.700Z,79.72
2022-10-24T03:50:42.188Z,84.03
2022-10-24T03:53:09.924Z,86.22
2022-10-24T03:55:37.369Z,73.78
2022-10-24T03:58:05.226Z,77.78
2022-10-24T04:00:35.015Z,75.93
2022-10-24T04:03:03.093Z,80.30
2022-10-24T04:05:30.412Z,69.35
2022-10-24T04:07:58.092Z,77.30
2022-10-24T04:10:25.726Z,80.38
2022-10-24T04:12:53.518Z,73.28
2022-10-24T04:15:21.164Z,83.28
2022-10-24T04:17:48.953Z,72.55
2022-10-24T04:20:20.010Z,76.28
2022-10-24T04:22:47.972Z,77.55
2022-10-24T04:25:16.174Z,73.43
2022-10-24T04:27:44.086Z,75.15
2022-10-24T04:30:16.473Z,73.22
2022-10-24T04:32:45.411Z,80.38
2022-10-24T04:35:14.304Z,84.05
2022-10-24T04:37:42.115Z,79.60
2022-10-24T04:40:10.669Z,84.15
2022-10-24T04:42:38.279Z,95.28
2022-10-24T04:45:06.628Z,86.00
2022-10-24T04:47:34.481Z,83.45
2022-10-24T04:50:02.182Z,80.72
2022-10-24T04:52:30.335Z,93.93
2022-10-24T04:54:57.738Z,89.15
2022-10-24T04:57:25.473Z,82.80
2022-10-24T04:59:52.864Z,89.53
2022-10-24T05:02:20.655Z,83.47
2022-10-24T05:04:48.283Z,87.47
2022-10-24T05:07:15.961Z,73.80
2022-10-24T05:09:43.503Z,80.70
2022-10-24T05:12:11.164Z,80.78
2022-10-24T05:14:38.706Z,75.38
2022-10-24T05:17:06.849Z,80.55
2022-10-24T05:19:34.374Z,76.78
2022-10-24T05:22:03.240Z,71.28
2022-10-24T05:24:32.810Z,73.55
2022-10-24T05:27:00.719Z,70.95
2022-10-24T05:29:31.382Z,73.78
2022-10-24T05:31:59.297Z,73.45
2022-10-24T05:34:27.770Z,73.55
2022-10-24T05:36:55.449Z,74.30
2022-10-24T05:39:23.081Z,70.18
2022-10-24T05:41:54.479Z,75.57
2022-10-24T05:44:22.951Z,62.05
2022-10-24T05:46:50.815Z,77.03
2022-10-24T05:49:18.571Z,70.68
2022-10-24T05:51:46.889Z,68.90
2022-10-24T05:54:14.722Z,80.22
2022-10-24T05:56:42.501Z,74.85
2022-10-24T05:59:09.830Z,69.60
2022-10-24T06:01:37.514Z,66.47
2022-10-24T06:04:08.852Z,70.18
2022-10-24T06:06:43.322Z,70.18
2022-10-24T06:09:11.847Z,68.35
2022-10-24T06:11:39.859Z,68.35
2022-10-24T06:14:07.399Z,74.80
2022-10-24T06:16:35.654Z,75.75
2022-10-24T06:19:03.332Z,76.28
2022-10-24T06:21:31.038Z,81.35
2022-10-24T06:23:59.263Z,66.05
2022-10-24T06:26:26.925Z,60.83
2022-10-24T06:28:55.814Z,70.47
2022-10-24T06:31:23.515Z,62.78
2022-10-24T06:33:51.174Z,72.15
2022-10-24T06:36:19.234Z,71.22
2022-10-24T06:38:46.810Z,69.05
2022-10-24T06:41:17.180Z,78.28
2022-10-24T06:43:44.659Z,139.90
2022-10-24T06:46:15.986Z,137.55
2022-10-24T06:48:43.969Z,89.70
2022-10-24T06:51:15.355Z,77.03
2022-10-24T06:53:42.996Z,68.05
2022-10-24T06:56:10.565Z,63.70
2022-10-24T06:58:38.301Z,62.30
2022-10-24T07:01:17.050Z,59.53
2022-10-24T07:03:45.292Z,57.85
2022-10-24T07:06:27.187Z,59.55
2022-10-24T07:08:58.161Z,59.50
2022-10-24T07:11:26.531Z,59.83
2022-10-24T07:13:56.667Z,60.92
2022-10-24T07:16:27.816Z,58.92
2022-10-24T07:18:55.732Z,57.20
2022-10-24T07:21:25.974Z,57.47
2022-10-24T07:23:54.220Z,60.00
2022-10-24T07:26:23.822Z,58.28
2022-10-24T07:28:56.235Z,57.03
2022-10-24T07:31:26.629Z,60.42
2022-10-24T07:33:54.616Z,59.33
2022-10-24T07:36:24.551Z,58.58
2022-10-24T07:38:53.833Z,60.03
2022-10-24T07:41:22.071Z,62.97
2022-10-24T07:43:49.509Z,65.60
2022-10-24T07:46:18.936Z,69.40
2022-10-24T07:48:46.520Z,59.80
2022-10-24T07:51:14.650Z,66.28
2022-10-24T07:53:42.814Z,66.20
2022-10-24T07:56:13.642Z,67.05
2022-10-24T07:58:40.898Z,69.18
2022-10-24T08:01:17.271Z,70.75
2022-10-24T08:03:44.931Z,74.35
2022-10-24T08:06:15.905Z,74.60
2022-10-24T08:08:43.971Z,74.30
2022-10-24T08:11:16.951Z,71.18
2022-10-24T08:13:44.551Z,63.13
2022-10-24T08:16:14.081Z,67.43
2022-10-24T08:18:41.679Z,59.47
2022-10-24T08:21:12.080Z,72.97
2022-10-24T08:23:42.965Z,63.78
2022-10-24T08:26:13.934Z,61.10
2022-10-24T08:28:43.038Z,58.78
2022-10-24T08:31:16.619Z,57.60
2022-10-24T08:33:45.110Z,54.75
2022-10-24T08:36:36.197Z,61.22
2022-10-24T08:39:04.571Z,59.30
2022-10-24T08:41:40.896Z,54.50
2022-10-24T08:44:44.008Z,53.85
2022-10-24T08:50:28.483Z,55.88
2022-10-24T08:53:00.148Z,52.60
2022-10-24T08:55:55.419Z,57.80
2022-10-24T08:58:42.695Z,54.08
2022-10-24T09:01:30.532Z,51.65
2022-10-24T09:04:00.823Z,59.05
2022-10-24T09:06:30.722Z,48.20
2022-10-24T09:09:04.493Z,43.78
2022-10-24T09:11:50.878Z,41.30
2022-10-24T09:14:24.589Z,39.17
2022-10-24T09:16:59.968Z,37.85
2022-10-24T09:19:29.560Z,37.78
2022-10-24T09:21:59.682Z,35.35
2022-10-24T09:24:35.531Z,37.33
2022-10-24T09:27:05.356Z,36.15
2022-10-24T09:29:34.308Z,35.83
2022-10-24T09:32:02.544Z,35.20
2022-10-24T09:34:30.744Z,36.53
2022-10-24T09:36:58.245Z,33.95
2022-10-24T09:39:29.300Z,40.65
2022-10-24T09:41:58.119Z,32.88
2022-10-24T09:44:47.176Z,32.13
2022-10-24T09:47:29.319Z,30.08
2022-10-24T09:49:57.645Z,28.40
2022-10-24T09:52:26.935Z,32.45
2022-10-24T09:55:19.303Z,34.72
2022-10-24T09:57:47.599Z,26.98
2022-10-24T10:00:22.970Z,29.70
2022-10-24T10:03:24.224Z,26.80
2022-10-24T10:05:56.051Z,29.40
2022-10-24T10:08:32.880Z,27.75
2022-10-24T10:11:06.140Z,28.77
2022-10-24T10:13:49.836Z,32.38
2022-10-24T10:16:32.971Z,29.58
2022-10-24T10:21:54.488Z,28.67
2022-10-24T10:24:41.226Z,32.63
2022-10-24T10:27:46.651Z,29.77
2022-10-24T10:30:19.302Z,36.25
2022-10-24T10:32:58.789Z,28.20
2022-10-24T10:35:41.600Z,30.77
2022-10-24T10:38:38.020Z,35.17
2022-10-24T10:41:19.586Z,30.33
2022-10-24T10:44:05.071Z,39.40
2022-10-24T10:46:36.896Z,27.33
2022-10-24T10:49:25.130Z,28.60
2022-10-24T10:51:58.726Z,30.95
2022-10-24T10:55:00.109Z,24.92
2022-10-24T10:57:37.709Z,25.45
2022-10-24T11:00:24.690Z,28.90
2022-10-24T11:03:00.127Z,27.30
2022-10-24T11:05:40.444Z,26.50
2022-10-24T11:08:50.924Z,23.83
2022-10-24T11:11:23.386Z,26.98
2022-10-24T11:14:22.201Z,26.58
2022-10-24T11:16:51.242Z,32.97
2022-10-24T11:19:32.733Z,26.98
2022-10-24T11:22:04.319Z,26.25
2022-10-24T11:24:41.873Z,25.50
2022-10-24T11:27:41.063Z,27.05
2022-10-24T11:30:22.817Z,27.45
2022-10-24T11:32:55.374Z,23.90
2022-10-24T11:35:33.547Z,23.40
2022-10-24T11:38:13.336Z,26.20
2022-10-24T11:40:43.141Z,26.02
2022-10-24T11:43:23.111Z,26.05
2022-10-24T11:46:14.989Z,33.05
2022-10-24T11:48:59.447Z,25.13
2022-10-24T11:51:41.219Z,25.50
2022-10-24T11:54:19.700Z,30.90
2022-10-24T11:56:53.909Z,25.02
2022-10-24T11:59:26.364Z,26.02
2022-10-24T12:01:56.281Z,26.05
2022-10-24T12:05:02.496Z,25.75
2022-10-24T12:08:10.536Z,22.98
2022-10-24T12:11:00.473Z,19.63
2022-10-24T12:13:46.493Z,17.13
2022-10-24T12:16:49.440Z,21.77
2022-10-24T12:19:20.198Z,16.95
2022-10-24T12:21:53.113Z,15.07
2022-10-24T12:24:30.518Z,20.75
2022-10-24T12:27:03.010Z,16.75
2022-10-24T12:29:33.989Z,13.18
2022-10-24T12:32:39.979Z,15.10
2022-10-24T12:35:30.501Z,15.30
2022-10-24T12:37:59.933Z,13.55
2022-10-24T12:40:46.275Z,16.38
2022-10-24T12:43:47.684Z,18.15
2022-10-24T12:46:21.776Z,17.40
2022-10-24T12:48:57.598Z,14.55
2022-10-24T12:51:33.117Z,15.63
2022-10-24T12:54:13.707Z,12.05
2022-10-24T12:56:53.589Z,18.88
2022-10-24T12:59:34.529Z,13.25
2022-10-24T13:02:24.915Z,18.48
2022-10-24T13:05:18.580Z,11.30
2022-10-24T13:07:53.027Z,16.88
2022-10-24T13:10:45.087Z,14.48
2022-10-24T13:13:32.711Z,15.35
2022-10-24T13:16:26.291Z,17.48
2022-10-24T13:19:22.290Z,14.18
2022-10-24T13:21:55.045Z,19.63
2022-10-24T13:24:29.195Z,15.13
2022-10-24T13:26:57.634Z,18.83
2022-10-24T13:29:28.515Z,14.88
2022-10-24T13:32:08.949Z,18.38
2022-10-24T13:34:55.564Z,12.90
2022-10-24T13:37:26.290Z,17.25
2022-10-24T13:40:15.632Z,12.63
2022-10-24T13:42:54.811Z,11.60
2022-10-24T13:45:42.044Z,16.95
2022-10-24T13:48:28.246Z,10.40
2022-10-24T13:51:38.438Z,13.57
2022-10-24T13:54:15.848Z,15.55
2022-10-24T13:56:45.532Z,17.40
2022-10-24T13:59:39.817Z,12.43
2022-10-24T14:02:18.470Z,13.07
2022-10-24T14:04:47.965Z,12.77
2022-10-24T14:07:22.721Z,13.95
2022-10-24T14:09:57.291Z,17.08
2022-10-24T14:12:27.970Z,13.43
2022-10-24T14:14:57.452Z,15.82
2022-10-24T14:17:31.914Z,13.02
2022-10-24T14:20:18.448Z,18.73
2022-10-24T14:22:46.911Z,13.88
2022-10-24T14:25:35.673Z,19.15
2022-10-24T14:28:16.205Z,18.02
2022-10-24T14:31:27.309Z,15.52
2022-10-24T14:33:56.532Z,11.48
2022-10-24T14:36:29.336Z,11.02
2022-10-24T14:38:59.501Z,17.02
2022-10-24T14:41:30.580Z,13.60
2022-10-24T14:43:59.823Z,14.80
2022-10-24T14:46:34.299Z,16.27
2022-10-24T14:49:30.727Z,22.15
2022-10-24T14:52:02.773Z,16.05
2022-10-24T14:54:32.929Z,22.17
2022-10-24T14:57:03.639Z,16.45
2022-10-24T14:59:36.502Z,16.48
2022-10-24T15:02:28.387Z,20.10
2022-10-24T15:05:14.919Z,18.48
2022-10-24T15:07:57.197Z,19.20
2022-10-24T15:10:44.620Z,20.92
2022-10-24T15:13:21.887Z,17.15
2022-10-24T15:15:58.804Z,19.25
2022-10-24T15:18:27.121Z,19.63
2022-10-24T15:21:11.703Z,22.40
2022-10-24T15:23:56.240Z,22.33
2022-10-24T15:26:44.849Z,28.38
2022-10-24T15:29:13.214Z,26.65
2022-10-24T15:31:45.129Z,20.92
2022-10-24T15:34:22.691Z,23.13
2022-10-24T15:36:52.371Z,25.42
2022-10-24T15:39:26.481Z,33.13
2022-10-24T15:41:55.595Z,36.97
2022-10-24T15:44:28.153Z,33.45
2022-10-24T15:46:56.870Z,36.95
2022-10-24T15:49:25.138Z,38.70
2022-10-24T15:51:52.916Z,35.70
2022-10-24T15:54:22.514Z,36.50
2022-10-24T15:56:52.225Z,26.73
2022-10-24T15:59:20.925Z,30.42
2022-10-24T16:01:54.807Z,28.25
2022-10-24T16:04:23.878Z,31.60
2022-10-24T16:06:52.410Z,22.98
2022-10-24T16:09:25.229Z,29.83
2022-10-24T16:11:53.451Z,24.30
2022-10-24T16:14:25.865Z,23.13
2022-10-24T16:16:55.456Z,21.13
2022-10-24T16:19:26.930Z,25.60
2022-10-24T16:21:58.918Z,23.10
2022-10-24T16:24:28.489Z,27.10
2022-10-24T16:26:57.149Z,25.88
2022-10-24T16:29:25.749Z,18.98
2022-10-24T16:31:53.678Z,19.65
2022-10-24T16:34:22.142Z,19.58
2022-10-24T16:36:53.956Z,22.08
2022-10-24T16:39:22.148Z,21.30
2022-10-24T16:41:54.203Z,22.17
2022-10-24T16:44:22.871Z,21.08
2022-10-24T16:46:53.712Z,23.23
2022-10-24T16:49:22.023Z,23.08
2022-10-24T16:51:50.079Z,19.92
2022-10-24T16:54:19.822Z,26.85
2022-10-24T16:56:53.648Z,30.90
2022-10-24T16:59:22.279Z,23.58
2022-10-24T17:01:51.155Z,23.05
2022-10-24T17:04:19.713Z,23.80
2022-10-24T17:06:47.740Z,21.90
2022-10-24T17:09:16.078Z,26.42
2022-10-24T17:11:45.793Z,24.65
2022-10-24T17:14:14.951Z,22.60
2022-10-24T17:16:44.281Z,20.15
2022-10-24T17:19:16.234Z,24.58
2022-10-24T17:21:47.533Z,25.25
2022-10-24T17:24:19.171Z,21.58
2022-10-24T17:26:48.052Z,21.20
2022-10-24T17:29:27.432Z,26.48
2022-10-24T17:31:55.353Z,34.85
2022-10-24T17:34:24.048Z,26.83
2022-10-24T17:37:08.413Z,27.10
2022-10-24T17:39:45.847Z,26.27
2022-10-24T17:42:13.869Z,35.53
2022-10-24T17:44:43.278Z,29.08
2022-10-24T17:47:12.519Z,28.05
2022-10-24T17:49:41.257Z,32.05
2022-10-24T17:52:12.295Z,39.08
2022-10-24T17:54:44.905Z,37.45
2022-10-24T17:57:14.281Z,39.78
2022-10-24T17:59:42.616Z,30.25
2022-10-24T18:02:14.571Z,31.23
2022-10-24T18:04:44.873Z,26.77
2022-10-24T18:07:13.115Z,34.80
2022-10-24T18:09:41.512Z,39.70
2022-10-24T18:12:10.493Z,42.50
2022-10-24T18:14:38.822Z,34.90
2022-10-24T18:17:06.938Z,32.35
2022-10-24T18:19:35.616Z,35.85
2022-10-24T18:22:04.911Z,34.25
2022-10-24T18:24:33.799Z,39.92
2022-10-24T18:27:01.939Z,37.08
2022-10-24T18:29:30.482Z,46.72
2022-10-24T18:31:58.509Z,40.28
2022-10-24T18:34:26.797Z,43.53
2022-10-24T18:36:54.584Z,59.08
2022-10-24T18:39:26.292Z,48.78
2022-10-24T18:42:00.915Z,52.90
2022-10-24T18:44:32.262Z,49.13
2022-10-24T18:47:03.161Z,51.75
2022-10-24T18:49:33.757Z,42.08
2022-10-24T18:52:11.882Z,46.25
2022-10-24T18:55:13.473Z,52.55
2022-10-24T18:57:41.582Z,43.13
2022-10-24T19:00:13.899Z,41.70
2022-10-24T19:02:54.555Z,41.28
2022-10-24T19:05:25.938Z,43.78
2022-10-24T19:07:54.742Z,48.88
2022-10-24T19:10:26.363Z,46.20
2022-10-24T19:12:55.933Z,47.42
2022-10-24T19:15:25.799Z,47.55
2022-10-24T19:17:54.165Z,47.55
2022-10-24T19:20:24.514Z,43.72
2022-10-24T19:22:52.882Z,46.05
2022-10-24T19:25:21.101Z,49.20
2022-10-24T19:27:50.012Z,45.78
2022-10-24T19:30:18.936Z,43.78
2022-10-24T19:32:47.269Z,37.78
2022-10-24T19:35:17.847Z,47.58
2022-10-24T19:37:46.075Z,41.97
2022-10-24T19:40:14.837Z,49.85
2022-10-24T19:42:42.728Z,43.13
2022-10-24T19:45:11.221Z,45.00
2022-10-24T19:47:38.971Z,45.65
2022-10-24T19:50:08.079Z,37.38
2022-10-24T19:52:36.415Z,38.88
2022-10-24T19:55:05.357Z,39.83
2022-10-24T19:57:33.603Z,36.05
2022-10-24T20:00:02.399Z,36.63
2022-10-24T20:02:39.281Z,37.67
2022-10-24T20:05:08.552Z,38.83
2022-10-24T20:07:36.357Z,31.75
2022-10-24T20:10:05.146Z,38.80
2022-10-24T20:12:33.463Z,40.22
2022-10-24T20:15:01.403Z,37.38
2022-10-24T20:17:30.012Z,42.88
2022-10-24T20:19:58.537Z,45.28
2022-10-24T20:22:26.405Z,45.55
2022-10-24T20:24:54.987Z,47.30
2022-10-24T20:27:26.801Z,48.70
2022-10-24T20:29:55.641Z,48.22
2022-10-24T20:32:23.826Z,53.88
2022-10-24T20:34:52.191Z,49.63
2022-10-24T20:37:20.469Z,54.08
2022-10-24T20:39:49.481Z,54.63
2022-10-24T20:42:18.181Z,59.10
2022-10-24T20:44:46.749Z,58.80
2022-10-24T20:47:15.282Z,59.38
2022-10-24T20:49:43.522Z,59.95
2022-10-24T20:54:41.760Z,51.53
2022-10-24T20:57:10.393Z,52.75
2022-10-24T20:59:40.530Z,51.90
2022-10-24T21:02:10.826Z,49.97
2022-10-24T21:04:39.578Z,46.40
2022-10-24T21:07:07.349Z,49.40
2022-10-24T21:09:35.795Z,41.85
2022-10-24T21:12:04.419Z,46.47
2022-10-24T21:14:32.531Z,37.72
2022-10-24T21:17:01.064Z,44.05
2022-10-24T21:19:30.888Z,36.30
2022-10-24T21:21:59.205Z,36.85
2022-10-24T21:24:27.279Z,35.80
2022-10-24T21:26:55.661Z,32.53
2022-10-24T21:29:39.115Z,31.10
2022-10-24T21:32:07.563Z,35.00
2022-10-24T21:34:35.785Z,34.50
2022-10-24T21:37:04.653Z,39.92
2022-10-24T21:39:33.297Z,33.15
2022-10-24T21:42:01.666Z,32.03
2022-10-24T21:44:30.202Z,34.15
2022-10-24T21:46:58.312Z,28.88
2022-10-24T21:49:26.348Z,32.75
2022-10-24T21:51:54.272Z,29.80
2022-10-24T21:54:24.208Z,33.22
2022-10-24T21:56:52.221Z,32.58
2022-10-24T21:59:21.493Z,30.48
2022-10-24T22:01:51.926Z,34.20
2022-10-24T22:04:21.713Z,32.40
2022-10-24T22:06:49.757Z,36.28
2022-10-24T22:09:20.620Z,32.35
2022-10-24T22:11:48.798Z,36.20
2022-10-24T22:14:18.238Z,35.22
2022-10-24T22:16:46.204Z,40.40
2022-10-24T22:19:14.913Z,31.80
2022-10-24T22:21:44.983Z,35.75
2022-10-24T22:24:17.323Z,33.08
2022-10-24T22:26:46.205Z,30.27
2022-10-24T22:29:17.524Z,33.20
2022-10-24T22:31:46.299Z,30.90
2022-10-24T22:34:20.368Z,32.05
2022-10-24T22:37:07.254Z,31.08
2022-10-24T22:39:35.957Z,33.10
2022-10-24T22:42:07.129Z,32.63
2022-10-24T22:44:35.547Z,36.50
2022-10-24T22:47:09.220Z,34.30
2022-10-24T22:49:47.509Z,36.60
2022-10-24T22:52:15.521Z,37.17
2022-10-24T22:54:43.966Z,35.92
2022-10-24T22:57:12.119Z,35.05
2022-10-24T22:59:40.428Z,32.83
2022-10-24T23:02:33.948Z,31.05
2022-10-24T23:05:34.793Z,29.48
2022-10-24T23:08:12.634Z,33.45
2022-10-24T23:10:41.119Z,35.10
2022-10-24T23:13:09.896Z,32.22
2022-10-24T23:15:38.703Z,34.33
2022-10-24T23:18:09.111Z,33.80
2022-10-24T23:20:43.829Z,34.20
2022-10-24T23:23:28.147Z,30.02
2022-10-24T23:26:04.765Z,30.40
2022-10-24T23:28:51.373Z,31.58
2022-10-24T23:31:20.120Z,36.78
2022-10-24T23:33:48.668Z,34.35
2022-10-24T23:36:25.054Z,37.22
2022-10-24T23:38:56.306Z,38.03
2022-10-24T23:41:24.820Z,40.75
2022-10-24T23:43:53.199Z,36.65
2022-10-24T23:46:49.868Z,36.25
2022-10-24T23:49:38.288Z,38.30
2022-10-24T23:52:26.912Z,33.05
2022-10-24T23:54:56.141Z,36.70
2022-10-24T23:57:24.850Z,42.22
2022-10-24T23:59:52.960Z,41.17
